.
WxDataArchive / Data Records for 2007-08-20
2007-08-19 August 2007 2007-08-21

Data Records for Monday, 20 August 2007

Time	Temp	Chill	HIndex	Humid	Dewpt	 Wind 	HiWind	WindDir	Rain 	Barom 
-----	----	-----	------	-----	-----	------	------	-------	-----	----- 
00:00	62.9	62.9	62.9	97	62.0	2	4	90	0.00	29.970 
00:05	62.9	62.9	62.9	97	62.0	1	3	68	0.01	29.980 
00:10	62.9	62.9	62.9	97	62.0	1	3	112	0.00	29.973 
00:15	62.9	62.9	62.9	97	62.0	1	3	112	0.01	29.966 
00:20	62.9	62.9	62.9	97	62.0	1	4	90	0.00	29.970 
00:25	62.9	62.9	62.9	97	62.0	1	3	90	0.01	29.971 
00:30	62.9	62.9	62.9	97	62.0	1	3	90	0.00	29.969 
00:35	62.9	62.9	62.9	97	62.0	2	4	90	0.00	29.959 
00:40	62.9	62.9	62.9	97	62.0	0	2	68	0.00	29.961 
00:45	62.9	62.9	62.9	97	62.0	1	3	90	0.00	29.957 
00:50	62.9	62.9	62.9	97	62.0	1	3	90	0.00	29.953 
00:55	62.9	62.9	62.9	97	62.0	1	3	68	0.00	29.951 
01:00	62.9	62.9	62.9	97	62.0	0	3	90	0.00	29.953 
01:05	63.1	63.1	63.1	97	62.2	1	3	90	0.01	29.950 
01:10	63.1	63.1	63.1	97	62.2	1	3	90	0.00	29.944 
01:15	63.1	63.1	63.1	97	62.2	1	3	112	0.00	29.938 
01:20	63.1	63.1	63.1	97	62.2	2	5	90	0.00	29.925 
01:25	63.1	63.1	63.1	97	62.2	2	3	90	0.00	29.925 
01:30	62.9	62.9	62.9	97	62.0	2	4	68	0.00	29.925 
01:35	62.9	62.9	62.9	97	62.0	1	4	90	0.00	29.926 
01:40	63.1	63.1	63.1	97	62.2	1	2	90	0.00	29.925 
01:45	63.1	63.1	63.1	97	62.2	1	4	90	0.00	29.924 
01:50	63.1	63.1	63.1	97	62.2	2	5	90	0.00	29.919 
01:55	63.1	63.1	63.1	97	62.2	2	4	68	0.00	29.917 
02:00	63.1	63.1	63.1	97	62.2	1	4	90	0.00	29.920 
02:05	63.1	63.1	63.1	97	62.2	1	5	68	0.00	29.917 
02:10	63.1	63.1	63.1	97	62.2	2	6	68	0.00	29.910 
02:15	63.1	63.1	63.1	97	62.2	2	5	90	0.00	29.910 
02:20	63.1	63.1	63.1	97	62.2	1	3	90	0.00	29.913 
02:25	63.1	63.1	63.1	97	62.2	1	4	112	0.00	29.909 
02:30	63.1	63.1	63.1	97	62.2	1	4	68	0.00	29.911 
02:35	63.1	63.1	63.1	97	62.2	1	3	68	0.00	29.908 
02:40	63.1	63.1	63.1	97	62.2	1	3	68	0.00	29.906 
02:45	63.1	63.1	63.1	97	62.2	1	5	68	0.00	29.904 
02:50	63.2	63.2	63.2	98	62.6	1	4	68	0.00	29.898 
02:55	63.2	63.2	63.2	98	62.6	1	4	90	0.00	29.897 
03:00	63.2	63.2	63.2	98	62.6	1	3	90	0.00	29.892 
03:05	63.2	63.2	63.2	98	62.6	0	2	90	0.00	29.891 
03:10	63.2	63.2	63.2	98	62.6	1	3	90	0.00	29.886 
03:15	63.2	63.2	63.2	98	62.6	1	4	90	0.00	29.879 
03:20	63.2	63.2	63.2	98	62.6	2	4	90	0.00	29.878 
03:25	63.2	63.2	63.2	98	62.6	2	6	112	0.00	29.878 
03:30	63.2	63.2	63.2	98	62.6	2	6	90	0.00	29.879 
03:35	63.2	63.2	63.2	98	62.6	2	5	90	0.00	29.880 
03:40	63.2	63.2	63.2	98	62.6	2	5	90	0.00	29.876 
03:45	63.2	63.2	63.2	98	62.6	3	7	90	0.00	29.875 
03:50	63.1	63.1	63.1	98	62.5	2	5	112	0.02	29.878 
03:55	63.2	63.2	63.2	98	62.6	0	2	112	0.01	29.893 
04:00	63.2	63.2	63.2	98	62.6	0	1	112	0.00	29.900 
04:05	63.2	63.2	63.2	98	62.6	1	5	112	0.00	29.891 
04:10	63.2	63.2	63.2	98	62.6	2	4	90	0.03	29.891 
04:15	63.2	63.2	63.2	98	62.6	3	5	90	0.02	29.875 
04:20	63.1	63.1	63.1	98	62.5	2	4	90	0.00	29.872 
04:25	63.1	63.1	63.1	98	62.5	2	7	90	0.00	29.879 
04:30	63.2	63.2	63.2	98	62.6	1	3	90	0.01	29.908 
04:35	63.2	63.2	63.2	98	62.6	0	3	315	0.01	29.906 
04:40	63.2	63.2	63.2	98	62.6	2	7	90	0.06	29.877 
04:45	63.2	63.2	63.2	98	62.6	2	5	68	0.02	29.872 
04:50	63.2	63.2	63.2	98	62.6	2	7	90	0.01	29.876 
04:55	63.4	63.4	63.4	98	62.8	0	2	90	0.00	29.895 
05:00	63.5	63.5	63.5	98	62.9	1	3	68	0.01	29.894 
05:05	63.7	63.7	63.7	98	63.1	0	4	112	0.00	29.897 
05:10	63.7	63.7	63.7	98	63.1	0	2	112	0.03	29.908 
05:15	63.9	63.9	63.9	98	63.3	4	7	90	0.15	29.868 
05:20	63.9	63.9	63.9	98	63.3	2	6	90	0.05	29.876 
05:25	63.9	63.9	63.9	98	63.3	1	5	90	0.04	29.877 
05:30	64.0	64.0	64.0	98	63.4	1	6	112	0.02	29.875 
05:35	64.2	64.2	64.2	98	63.6	3	6	112	0.01	29.873 
05:40	64.3	64.3	64.3	98	63.7	2	6	90	0.02	29.871 
05:45	64.5	64.5	64.5	98	63.9	2	5	90	0.00	29.872 
05:50	64.5	64.5	64.5	99	64.2	1	2	90	0.00	29.901 
05:55	64.8	64.8	64.8	99	64.5	1	5	292	0.02	29.891 
06:00	65.0	65.0	65.0	99	64.7	4	7	90	0.00	29.858 
06:05	65.0	65.0	65.0	99	64.7	3	7	68	0.00	29.859 
06:10	65.0	65.0	65.0	99	64.7	3	6	90	0.00	29.855 
06:15	64.8	64.8	64.8	99	64.5	2	5	90	0.00	29.859 
06:20	64.8	64.8	64.8	99	64.5	1	4	68	0.01	29.860 
06:25	64.8	64.8	64.8	99	64.5	2	5	90	0.00	29.861 
06:30	64.8	64.8	64.8	99	64.5	1	3	68	0.00	29.864 
06:35	65.0	65.0	65.0	99	64.7	0	1	68	0.00	29.865 
06:40	65.0	65.0	65.0	99	64.7	1	3	68	0.01	29.859 
06:45	65.0	65.0	65.0	99	64.7	0	2	68	0.00	29.865 
06:50	65.0	65.0	65.0	99	64.7	1	3	68	0.04	29.865 
06:55	64.8	64.8	64.8	99	64.5	1	6	68	0.03	29.867 
07:00	64.8	64.8	64.8	99	64.5	1	4	90	0.10	29.861 
07:05	64.8	64.8	64.8	99	64.5	1	4	112	0.12	29.865 
07:10	64.8	64.8	64.8	99	64.5	1	3	90	0.01	29.861 
07:15	65.0	65.0	65.0	99	64.7	1	3	90	0.03	29.860 
07:20	65.0	65.0	65.0	99	64.7	1	3	90	0.02	29.858 
07:25	65.0	65.0	65.0	99	64.7	1	4	112	0.03	29.862 
07:30	65.0	65.0	65.0	99	64.7	1	3	112	0.08	29.860 
07:35	65.0	65.0	65.0	99	64.7	0	2	112	0.03	29.858 
07:40	65.2	65.2	65.2	99	64.9	0	2	112	0.01	29.859 
07:45	65.2	65.2	65.2	99	64.9	0	1	112	0.00	29.861 
07:50	65.3	65.3	65.3	99	65.0	0	1	112	0.00	29.863 
07:55	65.5	65.5	65.5	99	65.2	0	2	112	0.01	29.862 
08:00	65.5	65.5	65.5	99	65.2	0	1	112	0.01	29.862 
08:05	65.6	65.6	65.6	99	65.3	0	1	112	0.00	29.864 
08:10	65.6	65.6	65.6	99	65.3	0	1	112	0.01	29.870 
08:15	65.8	65.8	65.8	99	65.5	0	1	112	0.01	29.875 
08:20	66.0	66.0	66.0	99	65.7	0	1	112	0.00	29.876 
08:25	66.0	66.0	66.0	99	65.7	0	2	112	0.00	29.873 
08:30	66.0	66.0	66.0	99	65.7	0	1	112	0.00	29.873 
08:35	66.1	66.1	66.1	99	65.8	1	3	112	0.00	29.870 
08:40	66.1	66.1	66.1	99	65.8	1	3	112	0.00	29.875 
08:45	66.1	66.1	66.1	99	65.8	1	5	90	0.03	29.870 
08:50	66.0	66.0	66.0	99	65.7	1	2	112	0.00	29.864 
08:55	66.1	66.1	66.1	99	65.8	0	2	112	0.00	29.870 
09:00	66.1	66.1	66.1	99	65.8	1	3	112	0.00	29.868 
09:05	66.1	66.1	66.1	99	65.8	1	3	112	0.00	29.870 
09:10	66.1	66.1	66.1	99	65.8	1	2	135	0.01	29.863 
09:15	66.3	66.3	66.3	99	66.0	1	4	112	0.00	29.862 
09:20	66.3	66.3	66.3	99	66.0	0	2	112	0.00	29.870 
09:25	66.3	66.3	66.3	99	66.0	0	2	112	0.00	29.890 
09:30	66.3	66.3	66.3	99	66.0	3	10	90	0.12	29.876 
09:35	66.3	66.3	66.3	99	66.0	1	4	270	0.12	29.879 
09:40	66.3	66.3	66.3	99	66.0	1	3	270	0.00	29.906 
09:45	66.3	66.3	66.3	99	66.0	0	2	270	0.07	29.888 
09:50	66.3	66.3	66.3	99	66.0	1	3	270	0.04	29.890 
09:55	66.3	66.3	66.3	99	66.0	0	1	270	0.05	29.884 
10:00	66.3	66.3	66.3	99	66.0	0	1	270	0.02	29.882 
10:05	66.4	66.4	66.4	99	66.1	0	1	270	0.00	29.876 
10:10	66.6	66.6	66.6	99	66.3	0	2	270	0.01	29.872 
10:15	66.6	66.6	66.6	99	66.3	0	3	270	0.02	29.870 
10:20	66.9	66.9	66.9	99	66.6	0	1	270	0.00	29.866 
10:25	67.3	67.3	67.3	99	67.0	0	0	---	0.00	29.873 
10:30	67.6	67.6	67.6	99	67.3	0	1	270	0.00	29.873 
10:35	67.9	67.9	67.9	99	67.6	0	1	270	0.00	29.874 
10:40	68.3	68.3	68.3	99	68.0	0	1	270	0.00	29.871 
10:45	68.3	68.3	68.3	99	68.0	0	2	270	0.00	29.871 
10:50	68.3	68.3	68.3	99	68.0	0	1	270	0.00	29.873 
10:55	68.3	68.3	68.3	99	68.0	0	0	---	0.01	29.873 
11:00	68.1	68.1	68.1	99	67.8	0	0	---	0.01	29.875 
11:05	68.3	68.3	68.3	99	68.0	0	1	270	0.00	29.881 
11:10	68.4	68.4	68.4	99	68.1	0	1	270	0.01	29.888 
11:15	68.4	68.4	68.4	99	68.1	0	2	270	0.00	29.896 
11:20	68.3	68.3	68.3	99	68.0	1	3	292	0.01	29.886 
11:25	68.1	68.1	68.1	99	67.8	1	3	90	0.02	29.880 
11:30	67.9	67.9	67.9	99	67.6	0	2	90	0.01	29.873 
11:35	67.9	67.9	67.9	99	67.6	0	2	90	0.01	29.869 
11:40	67.9	67.9	67.9	99	67.6	0	2	90	0.00	29.863 
11:45	67.9	67.9	67.9	99	67.6	0	1	90	0.01	29.860 
11:50	68.1	68.1	68.1	99	67.8	0	2	90	0.00	29.863 
11:55	68.1	68.1	68.1	99	67.8	0	1	90	0.00	29.878 
12:00	68.1	68.1	68.1	99	67.8	1	3	90	0.04	29.891 
12:05	68.1	68.1	68.1	99	67.8	1	3	248	0.04	29.902 
12:10	68.1	68.1	68.1	99	67.8	0	2	248	0.08	29.895 
12:15	68.4	68.4	68.4	99	68.1	1	2	202	0.03	29.890 
12:20	68.8	68.8	68.8	99	68.5	0	1	225	0.03	29.886 
12:25	68.8	68.8	68.8	99	68.5	0	2	225	0.02	29.884 
12:30	68.9	68.9	68.9	99	68.6	0	1	225	0.01	29.878 
12:35	68.9	68.9	68.9	99	68.6	0	0	---	0.02	29.875 
12:40	68.9	68.9	68.9	99	68.6	1	3	180	0.03	29.869 
12:45	68.9	68.9	68.9	99	68.6	0	2	68	0.02	29.867 
12:50	68.9	68.9	68.9	99	68.6	1	5	68	0.00	29.863 
12:55	68.9	68.9	68.9	99	68.6	0	1	112	0.01	29.868 
13:00	68.9	68.9	68.9	99	68.6	0	1	112	0.01	29.865 
13:05	69.1	69.1	69.1	99	68.8	0	1	112	0.01	29.855 
13:10	69.1	69.1	69.1	99	68.8	0	2	112	0.00	29.849 
13:15	69.3	69.3	69.3	99	69.0	0	0	---	0.00	29.854 
13:20	69.4	69.4	69.4	99	69.1	0	1	112	0.01	29.864 
13:25	69.6	69.6	69.6	99	69.3	0	1	112	0.00	29.869 
13:30	69.8	69.8	69.8	99	69.5	1	2	202	0.01	29.872 
13:35	69.6	69.6	69.6	99	69.3	1	2	248	0.01	29.874 
13:40	69.6	69.6	69.6	99	69.3	1	2	248	0.01	29.873 
13:45	69.6	69.6	69.6	99	69.3	1	2	248	0.02	29.870 
13:50	69.6	69.6	69.6	99	69.3	0	1	248	0.03	29.871 
13:55	69.6	69.6	69.6	99	69.3	1	2	248	0.03	29.873 
14:00	69.6	69.6	69.6	99	69.3	0	2	248	0.03	29.870 
14:05	69.6	69.6	69.6	99	69.3	0	1	248	0.03	29.861 
14:10	69.8	69.8	69.8	99	69.5	0	1	248	0.02	29.855 
14:15	69.8	69.8	69.8	99	69.5	0	2	248	0.01	29.861 
14:20	69.8	69.8	69.8	99	69.5	0	1	248	0.03	29.863 
14:25	69.9	69.9	69.9	99	69.6	0	1	248	0.01	29.856 
14:30	70.1	70.1	70.1	99	69.8	0	1	248	0.01	29.855 
14:35	70.1	70.1	70.1	99	69.8	0	1	248	0.01	29.852 
14:40	70.3	70.3	70.3	99	70.0	0	0	---	0.00	29.847 
14:45	70.3	70.3	70.3	99	70.0	0	2	248	0.00	29.850 
14:50	70.3	70.3	70.3	99	70.0	1	2	248	0.00	29.849 
14:55	70.4	70.4	70.4	99	70.1	1	3	248	0.00	29.852 
15:00	70.4	70.4	70.4	99	70.1	0	2	248	0.00	29.854 
15:05	70.6	70.6	70.6	99	70.3	1	3	248	0.01	29.852 
15:10	70.4	70.4	70.4	99	70.1	1	2	248	0.01	29.855 
15:15	70.4	70.4	70.4	99	70.1	1	2	248	0.01	29.855 
15:20	70.6	70.6	70.6	99	70.3	1	3	270	0.00	29.854 
15:25	70.6	70.6	70.6	99	70.3	1	3	270	0.01	29.854 
15:30	70.4	70.4	70.4	99	70.1	1	3	270	0.00	29.853 
15:35	70.6	70.6	70.6	99	70.3	0	3	270	0.00	29.847 
15:40	70.6	70.6	70.6	99	70.3	0	2	270	0.00	29.846 
15:45	70.8	70.8	70.8	99	70.5	0	2	270	0.00	29.853 
15:50	70.6	70.6	70.6	99	70.3	0	2	270	0.01	29.854 
15:55	70.6	70.6	70.6	99	70.3	1	3	248	0.00	29.853 
16:00	70.8	70.8	70.8	99	70.5	0	1	248	0.00	29.852 
16:05	70.8	70.8	70.8	99	70.5	0	2	270	0.00	29.852 
16:10	70.8	70.8	70.8	99	70.5	1	2	270	0.00	29.853 
16:15	70.8	70.8	70.8	99	70.5	0	1	270	0.00	29.853 
16:20	70.8	70.8	70.8	99	70.5	0	2	270	0.01	29.853 
16:25	70.8	70.8	70.8	99	70.5	0	2	270	0.00	29.852 
16:30	70.8	70.8	70.8	99	70.5	0	2	270	0.01	29.849 
16:35	70.9	70.9	70.9	99	70.6	0	2	270	0.00	29.848 
16:40	70.9	70.9	70.9	99	70.6	0	1	270	0.00	29.844 
16:45	71.1	71.1	71.1	99	70.8	0	2	270	0.00	29.845 
16:50	71.1	71.1	71.1	99	70.8	0	1	270	0.00	29.847 
16:55	71.3	71.3	71.3	99	71.0	0	1	270	0.00	29.845 
17:00	71.3	71.3	71.3	99	71.0	0	1	270	0.00	29.842 
17:05	71.3	71.3	71.3	99	71.0	0	1	270	0.00	29.844 
17:10	71.1	71.1	71.1	99	70.8	0	1	270	0.00	29.849 
17:15	71.1	71.1	71.1	99	70.8	0	1	270	0.00	29.851 
17:20	71.1	71.1	71.1	99	70.8	0	0	---	0.00	29.853 
17:25	71.1	71.1	71.1	99	70.8	0	0	---	0.00	29.857 
17:30	71.1	71.1	71.1	99	70.8	0	1	270	0.00	29.858 
17:35	70.9	70.9	70.9	99	70.6	0	1	270	0.01	29.856 
17:40	70.9	70.9	70.9	99	70.6	0	1	270	0.03	29.852 
17:45	70.9	70.9	70.9	99	70.6	1	3	270	0.01	29.822 
17:50	70.8	70.8	70.8	99	70.5	1	4	68	0.00	29.821 
17:55	70.8	70.8	70.8	99	70.5	0	1	68	0.00	29.836 
18:00	70.8	70.8	70.8	99	70.5	0	0	---	0.00	29.839 
18:05	70.8	70.8	70.8	99	70.5	0	2	68	0.00	29.848 
18:10	70.8	70.8	70.8	99	70.5	0	1	68	0.00	29.853 
18:15	70.8	70.8	70.8	99	70.5	0	0	---	0.00	29.855 
18:20	70.8	70.8	70.8	99	70.5	0	1	68	0.00	29.854 
18:25	70.8	70.8	70.8	99	70.5	0	1	68	0.00	29.852 
18:30	70.6	70.6	70.6	99	70.3	0	2	68	0.00	29.844 
18:35	70.4	70.4	70.4	99	70.1	1	2	68	0.00	29.840 
18:40	70.4	70.4	70.4	99	70.1	0	1	68	0.00	29.848 
18:45	70.4	70.4	70.4	99	70.1	0	1	68	0.00	29.856 
18:50	70.3	70.3	70.3	99	70.0	0	0	---	0.00	29.857 
18:55	70.3	70.3	70.3	99	70.0	0	2	68	0.00	29.848 
19:00	70.3	70.3	70.3	99	70.0	0	2	68	0.00	29.860 
19:05	70.3	70.3	70.3	99	70.0	0	1	68	0.00	29.853 
19:10	70.1	70.1	70.1	99	69.8	0	0	---	0.01	29.857 
19:15	70.1	70.1	70.1	99	69.8	0	2	68	0.00	29.862 
19:20	70.1	70.1	70.1	99	69.8	0	1	68	0.00	29.854 
19:25	69.9	69.9	69.9	99	69.6	0	0	---	0.00	29.853 
19:30	69.9	69.9	69.9	99	69.6	0	1	68	0.00	29.853 
19:35	69.9	69.9	69.9	99	69.6	0	0	---	0.00	29.856 
19:40	69.9	69.9	69.9	99	69.6	0	0	---	0.00	29.856 
19:45	69.9	69.9	69.9	99	69.6	0	0	---	0.00	29.860 
19:50	69.9	69.9	69.9	99	69.6	0	0	---	0.00	29.864 
19:55	69.8	69.8	69.8	99	69.5	0	1	68	0.00	29.856 
20:00	69.8	69.8	69.8	99	69.5	0	1	68	0.00	29.857 
20:05	69.8	69.8	69.8	99	69.5	0	1	68	0.00	29.860 
20:10	69.8	69.8	69.8	99	69.5	0	1	68	0.00	29.860 
20:15	69.8	69.8	69.8	99	69.5	0	2	68	0.00	29.853 
20:20	69.8	69.8	69.8	99	69.5	1	3	68	0.00	29.852 
20:25	69.8	69.8	69.8	99	69.5	1	2	68	0.00	29.851 
20:30	69.8	69.8	69.8	99	69.5	1	2	68	0.00	29.850 
20:35	69.8	69.8	69.8	99	69.5	1	3	68	0.00	29.845 
20:40	69.8	69.8	69.8	99	69.5	1	2	68	0.01	29.846 
20:45	69.8	69.8	69.8	99	69.5	0	2	68	0.06	29.843 
20:50	69.8	69.8	69.8	99	69.5	1	3	68	0.09	29.839 
20:55	69.6	69.6	69.6	99	69.3	1	3	68	0.05	29.837 
21:00	69.6	69.6	69.6	99	69.3	1	3	68	0.04	29.836 
21:05	69.6	69.6	69.6	99	69.3	2	4	90	0.01	29.836 
21:10	69.6	69.6	69.6	99	69.3	1	3	90	0.00	29.837 
21:15	69.6	69.6	69.6	99	69.3	1	4	112	0.09	29.833 
21:20	69.6	69.6	69.6	99	69.3	1	3	112	0.08	29.836 
21:25	69.6	69.6	69.6	99	69.3	0	1	112	0.05	29.847 
21:30	69.6	69.6	69.6	99	69.3	0	1	112	0.05	29.848 
21:35	69.6	69.6	69.6	99	69.3	0	1	112	0.05	29.845 
21:40	69.6	69.6	69.6	99	69.3	0	1	112	0.04	29.841 
21:45	69.6	69.6	69.6	99	69.3	0	1	112	0.01	29.841 
21:50	69.6	69.6	69.6	99	69.3	0	1	112	0.01	29.843 
21:55	69.6	69.6	69.6	99	69.3	1	4	112	0.01	29.846 
22:00	69.6	69.6	69.6	99	69.3	1	3	90	0.01	29.851 
22:05	68.4	68.4	68.4	99	68.1	2	4	90	0.01	29.852 
22:10	67.8	67.8	67.8	99	67.5	1	5	90	0.01	29.852 
22:15	67.6	67.6	67.6	99	67.3	1	4	90	0.01	29.843 
22:20	67.3	67.3	67.3	99	67.0	1	4	112	0.02	29.843 
22:25	67.3	67.3	67.3	99	67.0	1	3	112	0.02	29.847 
22:30	67.1	67.1	67.1	99	66.8	1	3	90	0.00	29.850 
22:35	67.1	67.1	67.1	99	66.8	1	3	90	0.01	29.851 
22:40	66.9	66.9	66.9	99	66.6	0	2	90	0.01	29.854 
22:45	66.9	66.9	66.9	99	66.6	1	3	90	0.01	29.852 
22:50	66.9	66.9	66.9	99	66.6	0	3	90	0.02	29.849 
22:55	66.9	66.9	66.9	99	66.6	1	3	112	0.03	29.850 
23:00	66.9	66.9	66.9	99	66.6	1	3	112	0.02	29.851 
23:05	66.9	66.9	66.9	99	66.6	1	3	112	0.02	29.844 
23:10	66.9	66.9	66.9	99	66.6	1	3	112	0.00	29.843 
23:15	66.9	66.9	66.9	99	66.6	1	4	112	0.01	29.841 
23:20	66.9	66.9	66.9	99	66.6	1	4	90	0.00	29.842 
23:25	66.9	66.9	66.9	99	66.6	0	2	112	0.00	29.846 
23:30	66.9	66.9	66.9	99	66.6	0	2	112	0.00	29.846 
23:35	66.9	66.9	66.9	99	66.6	1	3	112	0.01	29.847 
23:40	66.8	66.8	66.8	99	66.5	1	5	135	0.00	29.841 
23:45	66.8	66.8	66.8	99	66.5	2	4	90	0.00	29.840 
23:50	66.8	66.8	66.8	99	66.5	1	3	68	0.01	29.840 
23:55	66.8	66.8	66.8	99	66.5	0	1	68	0.01	29.843 

CoCoRaHS
IN-AL-39
A2 Web Hosting
Creative Commons License
GoDaddy
Look for:

loaded 2017-10-17 00:22:22 • last modified 2010-11-18 10:43:29
Privacy PolicyDisclaimer
• wx.awcolley.com is powered by PmWiki v.2002016 •
• all content (unless otherwise noted) © 2017 A W Colley